Time;durP1;ratioP1;P1;durP2;ratioP2;P2;SDS_P1;SDS_P2;PMS_P1;PMS_P2;Temp;Humidity;BMP_temperature;BMP_pressure;BME280_temperature;BME280_humidity;BME280_pressure;Samples;Min_cycle;Max_cycle;Signal;HPM_P1;HPM_P2
2023/04/18 00:00:55;;;;;;;8.40;6.27;;;;;;;7.37;74.33;101164.41;5006320;28;20238;-69
2023/04/18 00:03:22;;;;;;;8.10;6.03;;;;;;;7.41;74.17;101158.41;5008840;28;20256;-70
2023/04/18 00:05:48;;;;;;;10.20;6.67;;;;;;;7.47;73.45;101167.47;5007255;28;20235;-69
2023/04/18 00:08:15;;;;;;;9.87;6.83;;;;;;;7.31;73.70;101165.09;5002573;28;20661;-69
2023/04/18 00:10:41;;;;;;;10.67;6.27;;;;;;;7.48;73.78;101158.72;5006994;28;20639;-69
2023/04/18 00:13:08;;;;;;;10.27;6.50;;;;;;;7.47;73.77;101159.56;5005169;28;21079;-69
2023/04/18 00:15:35;;;;;;;8.67;6.57;;;;;;;7.36;74.14;101162.63;4991301;28;20220;-69
2023/04/18 00:18:05;;;;;;;10.37;7.00;;;;;;;7.29;74.39;101155.31;5006709;28;20203;-71
2023/04/18 00:20:31;;;;;;;9.03;6.33;;;;;;;7.11;74.64;101160.75;5003003;28;20295;-69
2023/04/18 00:22:59;;;;;;;10.40;6.87;;;;;;;7.22;74.73;101157.72;5005555;28;20200;-69
2023/04/18 00:25:26;;;;;;;12.33;7.17;;;;;;;7.33;73.57;101154.59;5004529;28;20224;-68
2023/04/18 00:27:52;;;;;;;11.23;7.53;;;;;;;7.35;73.87;101155.56;5006804;28;20208;-69
2023/04/18 00:30:18;;;;;;;10.97;6.97;;;;;;;7.35;73.96;101151.19;5005796;28;20286;-70
2023/04/18 00:32:45;;;;;;;10.17;6.37;;;;;;;7.26;74.23;101148.19;5007505;28;20231;-69
2023/04/18 00:35:11;;;;;;;12.23;6.83;;;;;;;7.22;74.06;101138.38;4992324;28;20219;-68
2023/04/18 00:37:37;;;;;;;10.47;6.93;;;;;;;7.21;75.54;101153.28;5002461;28;20200;-71
2023/04/18 00:40:04;;;;;;;10.50;7.43;;;;;;;7.17;75.54;101147.81;4996318;28;20239;-69
2023/04/18 00:42:32;;;;;;;8.90;7.10;;;;;;;7.33;74.43;101151.97;5008551;28;20674;-69
2023/04/18 00:44:58;;;;;;;9.90;7.13;;;;;;;7.30;74.10;101151.84;5007973;28;20212;-69
2023/04/18 00:47:24;;;;;;;10.77;7.17;;;;;;;7.25;74.45;101154.31;5005837;28;20201;-69
2023/04/18 00:49:51;;;;;;;9.97;6.80;;;;;;;7.28;75.26;101151.78;5007093;28;20211;-71
2023/04/18 00:52:18;;;;;;;10.30;7.03;;;;;;;7.23;74.95;101158.63;5001131;28;20238;-69
2023/04/18 00:54:46;;;;;;;9.17;6.73;;;;;;;7.18;75.27;101153.16;5007456;28;20263;-69
2023/04/18 00:57:12;;;;;;;10.43;6.93;;;;;;;7.10;76.10;101146.69;5001874;28;20228;-69
2023/04/18 00:59:39;;;;;;;11.07;7.43;;;;;;;7.10;76.53;101146.69;5006718;28;20196;-71
2023/04/18 01:02:06;;;;;;;11.40;6.93;;;;;;;7.03;77.20;101152.56;5002097;28;20286;-70
2023/04/18 01:04:32;;;;;;;10.83;7.43;;;;;;;7.11;76.86;101148.47;5006623;28;21002;-69
2023/04/18 01:07:00;;;;;;;9.03;6.30;;;;;;;6.97;77.73;101147.03;5005043;28;20220;-69
2023/04/18 01:09:27;;;;;;;11.00;7.03;;;;;;;6.81;78.61;101147.28;5005905;28;20577;-68
2023/04/18 01:11:53;;;;;;;12.80;7.40;;;;;;;6.82;78.83;101149.06;5006025;28;20200;-70
2023/04/18 01:14:20;;;;;;;10.13;6.93;;;;;;;6.78;79.68;101153.28;5005838;28;20204;-69
2023/04/18 01:16:47;;;;;;;12.60;7.13;;;;;;;6.80;79.28;101142.81;5005969;28;20836;-69
2023/04/18 01:19:16;;;;;;;9.93;7.50;;;;;;;6.86;79.70;101141.34;5004836;28;20265;-69
2023/04/18 01:21:42;;;;;;;13.27;7.63;;;;;;;6.87;78.90;101135.25;5004592;28;20634;-70
2023/04/18 01:24:10;;;;;;;12.27;7.10;;;;;;;6.93;79.33;101139.88;5003255;28;20203;-71
2023/04/18 01:26:38;;;;;;;11.37;7.13;;;;;;;7.03;78.75;101134.13;5001293;28;20219;-70
2023/04/18 01:29:04;;;;;;;12.87;7.60;;;;;;;7.13;77.67;101140.63;5004318;28;20200;-69
2023/04/18 01:31:35;;;;;;;9.97;7.13;;;;;;;7.02;78.07;101127.06;4999612;28;20199;-69
2023/04/18 01:34:02;;;;;;;11.60;7.40;;;;;;;7.10;77.80;101137.88;5000314;28;20260;-69
2023/04/18 01:36:30;;;;;;;12.43;7.70;;;;;;;7.04;77.91;101133.28;5004648;28;20681;-68
2023/04/18 01:38:58;;;;;;;9.77;7.10;;;;;;;7.01;78.15;101125.25;5003112;28;20286;-69
2023/04/18 01:41:24;;;;;;;10.60;7.40;;;;;;;7.01;78.03;101127.00;4998823;28;20257;-69
2023/04/18 01:43:50;;;;;;;11.90;7.40;;;;;;;6.89;79.07;101119.53;5001690;28;20226;-68
2023/04/18 01:46:16;;;;;;;14.10;7.80;;;;;;;6.89;78.67;101123.03;5001788;28;20252;-71
2023/04/18 01:48:43;;;;;;;10.83;7.47;;;;;;;6.90;79.23;101123.94;5004186;28;20280;-69
2023/04/18 01:51:09;;;;;;;10.03;7.50;;;;;;;6.91;79.13;101125.75;5002510;28;20268;-69
2023/04/18 01:53:36;;;;;;;13.53;8.10;;;;;;;6.93;79.39;101124.06;5003593;28;20258;-69
2023/04/18 01:56:02;;;;;;;12.47;8.20;;;;;;;6.93;79.32;101121.44;5003045;28;20222;-69
2023/04/18 01:58:28;;;;;;;11.13;7.40;;;;;;;6.88;79.33;101116.00;5002154;28;20281;-70
2023/04/18 02:00:56;;;;;;;11.57;7.70;;;;;;;7.01;79.04;101120.00;5003116;28;20211;-69
2023/04/18 02:03:23;;;;;;;12.90;7.93;;;;;;;7.04;79.12;101117.47;5006069;28;20199;-69
2023/04/18 02:05:50;;;;;;;11.33;7.47;;;;;;;7.06;79.38;101117.53;5003710;28;20640;-69
2023/04/18 02:08:17;;;;;;;11.73;7.40;;;;;;;6.91;79.72;101102.94;5004200;28;20660;-69
2023/04/18 02:10:43;;;;;;;14.97;8.73;;;;;;;6.96;80.18;101123.28;5002555;28;20227;-71
2023/04/18 02:13:10;;;;;;;10.73;8.10;;;;;;;7.00;79.94;101126.09;5007773;28;20301;-70
2023/04/18 02:15:36;;;;;;;11.07;7.83;;;;;;;6.89;80.62;101111.63;5005420;28;20302;-69
2023/04/18 02:18:03;;;;;;;13.00;7.80;;;;;;;6.81;81.09;101116.59;5004708;28;20645;-69
2023/04/18 02:20:30;;;;;;;10.70;7.80;;;;;;;6.88;81.48;101118.63;5005978;28;20200;-69
2023/04/18 02:22:57;;;;;;;12.30;8.03;;;;;;;6.80;82.07;101127.03;5003777;28;20562;-70
2023/04/18 02:25:26;;;;;;;14.23;8.83;;;;;;;6.74;82.73;101121.50;5000754;28;20230;-69
2023/04/18 02:27:53;;;;;;;12.37;8.60;;;;;;;6.65;83.52;101113.25;5005418;28;20280;-70
2023/04/18 02:30:20;;;;;;;13.17;8.83;;;;;;;6.64;84.08;101116.72;4985761;28;20204;-69
2023/04/18 02:32:50;;;;;;;13.47;8.60;;;;;;;6.60;84.32;101126.22;5006430;28;20798;-73
2023/04/18 02:35:18;;;;;;;14.50;8.40;;;;;;;6.55;85.59;101126.03;5001466;28;20228;-69
2023/04/18 02:37:44;;;;;;;14.03;8.77;;;;;;;6.49;85.62;101117.00;5004682;28;20513;-69
2023/04/18 02:40:13;;;;;;;13.47;9.20;;;;;;;6.45;86.80;101108.09;5002726;28;20210;-71
2023/04/18 02:42:39;;;;;;;13.33;9.67;;;;;;;6.37;87.36;101112.09;4999736;28;20202;-70
2023/04/18 02:45:07;;;;;;;14.47;9.03;;;;;;;6.22;88.14;101115.00;5001616;28;20232;-68
2023/04/18 02:47:34;;;;;;;15.10;9.07;;;;;;;6.15;88.75;101115.59;5006049;28;20662;-70
2023/04/18 02:50:16;;;;;;;15.47;10.07;;;;;;;6.11;89.68;101115.38;5006016;28;20701;-70
2023/04/18 02:52:43;;;;;;;16.70;9.93;;;;;;;6.14;90.10;101118.16;4998545;28;20227;-72
2023/04/18 02:55:09;;;;;;;14.57;9.73;;;;;;;6.17;90.28;101120.91;4997763;28;20326;-69
2023/04/18 02:57:36;;;;;;;14.30;9.13;;;;;;;6.12;90.48;101119.81;5003550;28;20200;-70
2023/04/18 03:00:03;;;;;;;14.23;9.63;;;;;;;6.15;90.91;101109.44;5004437;28;20224;-69
2023/04/18 03:02:29;;;;;;;15.50;9.50;;;;;;;6.24;90.49;101118.59;5002514;28;20206;-71
2023/04/18 03:04:56;;;;;;;15.93;10.07;;;;;;;6.25;90.42;101115.13;5000775;28;20214;-71
2023/04/18 03:07:22;;;;;;;17.70;10.93;;;;;;;6.19;90.79;101120.13;4999087;28;20236;-70
2023/04/18 03:09:49;;;;;;;14.33;9.60;;;;;;;6.19;91.18;101114.88;5004294;28;20699;-69
2023/04/18 03:12:15;;;;;;;15.20;9.90;;;;;;;6.03;92.04;101120.31;4990371;28;20217;-69
2023/04/18 03:14:43;;;;;;;18.13;10.70;;;;;;;6.12;91.96;101117.19;5003466;28;20221;-70
2023/04/18 03:17:09;;;;;;;18.20;10.67;;;;;;;6.05;92.40;101125.66;5006399;28;20201;-71
2023/04/18 03:19:38;;;;;;;15.50;9.80;;;;;;;5.96;92.86;101128.75;5003060;28;20661;-70
2023/04/18 03:22:04;;;;;;;18.40;10.40;;;;;;;5.91;93.67;101119.78;5002401;28;20201;-71
2023/04/18 03:24:31;;;;;;;17.43;10.40;;;;;;;5.98;93.81;101129.72;5002249;28;20209;-70
2023/04/18 03:26:59;;;;;;;15.93;10.07;;;;;;;5.86;93.75;101130.06;5005002;28;20270;-71
2023/04/18 03:29:25;;;;;;;14.63;10.27;;;;;;;5.77;94.40;101136.63;5003554;28;20703;-70
2023/04/18 03:31:52;;;;;;;19.60;11.23;;;;;;;5.74;94.98;101131.25;4982555;28;20199;-70
2023/04/18 03:34:18;;;;;;;17.67;11.37;;;;;;;5.79;95.25;101141.13;5002578;28;20221;-70
2023/04/18 03:36:44;;;;;;;17.77;10.87;;;;;;;5.86;94.61;101137.94;5008757;28;20307;-70
2023/04/18 03:39:13;;;;;;;17.13;10.33;;;;;;;5.83;94.29;101134.28;5003493;28;20327;-70
2023/04/18 03:41:39;;;;;;;17.50;10.77;;;;;;;5.80;94.67;101140.31;4999763;28;20627;-69
2023/04/18 03:44:05;;;;;;;15.70;10.37;;;;;;;5.78;94.70;101126.19;4999230;28;20227;-70
2023/04/18 03:46:32;;;;;;;17.00;10.93;;;;;;;5.71;95.32;101134.63;5006979;28;20213;-69
2023/04/18 03:48:58;;;;;;;16.93;11.00;;;;;;;5.59;95.80;101124.44;5007006;28;20685;-71
2023/04/18 03:51:25;;;;;;;15.87;10.47;;;;;;;5.44;96.82;101130.75;5000831;28;20640;-70
2023/04/18 03:53:51;;;;;;;16.57;10.20;;;;;;;5.28;97.81;101132.69;5006427;28;20213;-69
2023/04/18 03:56:17;;;;;;;13.07;9.87;;;;;;;5.11;98.45;101141.47;4991911;28;20219;-71
2023/04/18 03:58:44;;;;;;;16.00;10.30;;;;;;;5.03;99.50;101133.25;5003833;28;20228;-69
2023/04/18 04:01:11;;;;;;;15.47;10.70;;;;;;;5.18;99.17;101140.94;5007711;28;20227;-70
2023/04/18 04:03:37;;;;;;;15.93;10.30;;;;;;;5.39;98.14;101134.91;5006456;28;20715;-68
2023/04/18 04:06:05;;;;;;;16.63;11.03;;;;;;;5.50;97.23;101137.19;5007534;28;20247;-70
2023/04/18 04:08:31;;;;;;;17.73;11.10;;;;;;;5.52;96.96;101138.16;4998404;28;20225;-71
2023/04/18 04:10:57;;;;;;;17.60;10.50;;;;;;;5.52;96.62;101140.78;5009626;28;20332;-70
2023/04/18 04:13:24;;;;;;;14.63;10.30;;;;;;;5.33;97.12;101144.31;5004052;28;20223;-71
2023/04/18 04:15:51;;;;;;;17.33;10.73;;;;;;;5.23;98.88;101149.06;5042143;23;20261;-76
2023/04/18 04:18:17;;;;;;;15.67;10.57;;;;;;;5.19;99.03;101150.63;5056324;28;20246;-75
2023/04/18 04:20:46;;;;;;;17.23;10.97;;;;;;;5.34;98.26;101150.44;5051949;28;20199;-75
2023/04/18 04:23:12;;;;;;;19.23;11.63;;;;;;;5.27;98.60;101149.28;5048814;28;20195;-76
2023/04/18 04:25:39;;;;;;;20.67;11.63;;;;;;;5.29;99.09;101147.63;5048178;28;20214;-76
2023/04/18 04:28:05;;;;;;;17.50;10.97;;;;;;;5.28;99.06;101148.44;5052108;28;20198;-76
2023/04/18 04:30:32;;;;;;;16.80;10.97;;;;;;;5.22;99.66;101152.50;5039634;28;20208;-76
2023/04/18 04:33:00;;;;;;;21.07;11.53;;;;;;;5.14;99.95;101145.97;5043483;28;20238;-76
2023/04/18 04:35:27;;;;;;;18.70;11.50;;;;;;;5.07;100.00;101150.03;5044747;28;20253;-76
2023/04/18 04:37:53;;;;;;;17.40;11.37;;;;;;;5.00;100.00;101148.84;5048383;28;20241;-77
2023/04/18 04:40:21;;;;;;;18.80;12.10;;;;;;;4.95;100.00;101145.13;5044906;28;20308;-76
2023/04/18 04:42:48;;;;;;;19.00;11.43;;;;;;;5.08;100.00;101143.97;5056693;28;20247;-76
2023/04/18 04:45:14;;;;;;;21.57;13.10;;;;;;;5.16;100.00;101152.19;5044894;28;20218;-76
2023/04/18 04:47:40;;;;;;;21.63;11.83;;;;;;;5.23;100.00;101146.44;5045082;28;20276;-76
2023/04/18 04:50:13;;;;;;;17.67;11.63;;;;;;;5.39;100.00;101148.94;5048024;28;20574;-75
2023/04/18 04:52:40;;;;;;;18.90;12.03;;;;;;;5.51;100.00;101146.84;5029093;28;20204;-75
2023/04/18 04:55:07;;;;;;;22.30;12.63;;;;;;;5.60;99.91;101154.25;5044712;28;20218;-74
2023/04/18 04:57:33;;;;;;;18.17;12.07;;;;;;;5.57;99.83;101157.63;5040929;28;20461;-76
2023/04/18 04:59:59;;;;;;;19.77;12.27;;;;;;;5.51;99.98;101152.13;5045478;28;20202;-74
2023/04/18 05:02:26;;;;;;;18.10;11.53;;;;;;;5.48;100.00;101161.59;5047440;28;20207;-76
2023/04/18 05:04:52;;;;;;;17.83;11.80;;;;;;;5.44;100.00;101157.03;5050042;28;20196;-75
2023/04/18 05:07:18;;;;;;;19.80;12.37;;;;;;;5.47;100.00;101159.78;5043286;28;20715;-77
2023/04/18 05:09:45;;;;;;;17.77;11.80;;;;;;;5.63;100.00;101160.56;5046746;28;20237;-76
2023/04/18 05:12:11;;;;;;;16.17;11.17;;;;;;;5.65;99.83;101165.91;5047633;28;20195;-76
2023/04/18 05:14:37;;;;;;;22.43;12.10;;;;;;;5.65;100.00;101165.91;5046463;28;20276;-75
2023/04/18 05:17:04;;;;;;;19.17;13.10;;;;;;;5.67;100.00;101158.97;5022484;28;20273;-74
2023/04/18 05:19:30;;;;;;;22.83;11.87;;;;;;;5.82;99.39;101158.75;5053811;28;20851;-76
2023/04/18 05:21:57;;;;;;;22.07;13.17;;;;;;;5.93;98.96;101158.44;5048831;28;20248;-76
2023/04/18 05:24:23;;;;;;;21.07;12.23;;;;;;;6.25;96.62;101166.84;5038684;28;20831;-72
2023/04/18 05:26:50;;;;;;;17.67;11.37;;;;;;;6.35;95.98;101161.13;5046265;28;20225;-74
2023/04/18 05:29:16;;;;;;;17.93;11.93;;;;;;;6.57;94.47;101162.94;5052661;28;20632;-72
2023/04/18 05:31:43;;;;;;;17.80;11.50;;;;;;;6.81;93.35;101160.44;5045856;28;20221;-72
2023/04/18 05:34:09;;;;;;;21.50;11.90;;;;;;;7.18;91.08;101161.03;5045258;28;20703;-72
2023/04/18 05:36:35;;;;;;;18.10;11.37;;;;;;;7.50;88.75;101169.31;5044878;28;20252;-72
2023/04/18 05:39:02;;;;;;;14.83;10.33;;;;;;;7.75;87.02;101168.50;5040768;28;20262;-72
2023/04/18 05:41:28;;;;;;;14.80;9.77;;;;;;;7.92;85.86;101164.72;5039971;28;20205;-73
2023/04/18 05:43:55;;;;;;;14.93;9.70;;;;;;;8.02;85.23;101169.53;5046196;28;20197;-72
2023/04/18 05:46:31;;;;;;;16.40;9.70;;;;;;;7.96;84.40;101174.56;5049105;28;20313;-71
2023/04/18 05:48:58;;;;;;;15.53;10.00;;;;;;;7.95;84.40;101170.13;5044231;28;20207;-71
2023/04/18 05:51:25;;;;;;;13.33;9.43;;;;;;;8.03;84.25;101176.59;5043438;28;20202;-72
2023/04/18 05:53:51;;;;;;;14.83;10.07;;;;;;;8.09;84.13;101173.28;5043929;28;20217;-72
2023/04/18 05:56:18;;;;;;;15.87;9.53;;;;;;;8.20;83.44;101174.53;5044814;28;20222;-72
2023/04/18 05:58:46;;;;;;;13.20;9.60;;;;;;;8.38;82.59;101177.84;5045409;28;20198;-72
2023/04/18 06:01:17;;;;;;;14.37;9.47;;;;;;;8.52;82.00;101173.06;5042364;28;20220;-71
2023/04/18 06:03:44;;;;;;;14.20;9.80;;;;;;;8.59;81.53;101180.34;5045755;28;20196;-74
2023/04/18 06:06:10;;;;;;;13.60;8.97;;;;;;;8.61;81.24;101181.28;5037589;28;20234;-72
2023/04/18 06:08:38;;;;;;;14.90;8.83;;;;;;;8.73;80.77;101180.81;5040227;28;20202;-71
2023/04/18 06:11:05;;;;;;;14.63;9.20;;;;;;;8.85;80.61;101188.25;5047371;28;20252;-72
2023/04/18 06:13:31;;;;;;;13.97;8.73;;;;;;;8.92;80.07;101190.25;5044902;28;20195;-73
2023/04/18 06:15:59;;;;;;;13.87;8.83;;;;;;;9.07;79.09;101185.44;5042918;28;20258;-72
2023/04/18 06:18:25;;;;;;;12.63;8.43;;;;;;;9.18;78.89;101199.91;5042046;28;22228;-75
2023/04/18 06:20:52;;;;;;;16.87;8.57;;;;;;;9.27;78.56;101201.97;5046714;28;20637;-75
2023/04/18 06:23:18;;;;;;;13.07;8.93;;;;;;;9.31;78.57;101193.28;5048276;28;20222;-74
2023/04/18 06:25:45;;;;;;;14.40;8.83;;;;;;;9.37;78.72;101201.38;5047382;28;20215;-76
2023/04/18 06:28:11;;;;;;;11.87;8.30;;;;;;;9.35;78.50;101205.72;5044517;28;20721;-75
2023/04/18 06:30:37;;;;;;;14.50;9.03;;;;;;;9.38;78.57;101200.53;5044755;28;20671;-74
2023/04/18 06:33:04;;;;;;;14.73;8.80;;;;;;;9.32;79.43;101211.81;5047925;28;20602;-74
2023/04/18 06:35:30;;;;;;;11.77;8.30;;;;;;;9.34;78.74;101222.44;5042651;28;20233;-74
2023/04/18 06:37:57;;;;;;;13.37;8.77;;;;;;;9.40;78.96;101210.31;5047818;28;20589;-74
2023/04/18 06:40:23;;;;;;;13.20;8.93;;;;;;;9.46;78.56;101211.34;5047073;28;20199;-74
2023/04/18 06:42:49;;;;;;;12.37;8.63;;;;;;;9.56;78.63;101218.69;5046889;28;20199;-73
2023/04/18 06:45:16;;;;;;;13.77;8.53;;;;;;;9.58;78.39;101217.91;5044600;28;20246;-75
2023/04/18 06:47:43;;;;;;;15.47;9.40;;;;;;;9.65;78.32;101214.63;5039165;28;20196;-74
2023/04/18 06:50:10;;;;;;;13.97;8.27;;;;;;;9.61;78.49;101217.13;5038733;28;20598;-73
2023/04/18 06:52:39;;;;;;;13.43;8.60;;;;;;;9.82;78.03;101214.22;5058521;28;20293;-74
2023/04/18 06:55:07;;;;;;;12.53;8.20;;;;;;;10.01;77.13;101224.50;5044576;28;20234;-72
2023/04/18 06:57:34;;;;;;;13.97;8.50;;;;;;;10.19;77.02;101221.47;5046398;28;20248;-74
2023/04/18 07:00:00;;;;;;;11.70;8.17;;;;;;;10.25;75.84;101219.03;5053074;28;20458;-75
2023/04/18 07:02:27;;;;;;;13.87;8.13;;;;;;;10.23;76.37;101216.31;5052724;28;20201;-74
2023/04/18 07:04:53;;;;;;;15.43;8.37;;;;;;;10.17;75.83;101231.13;5040435;28;20330;-75
2023/04/18 07:07:20;;;;;;;12.10;8.10;;;;;;;10.03;77.04;101223.69;5046142;28;20232;-75
2023/04/18 07:09:47;;;;;;;15.40;8.43;;;;;;;9.91;76.83;101243.56;5053562;28;20196;-74
2023/04/18 07:12:14;;;;;;;11.40;7.90;;;;;;;9.86;78.18;101238.16;5049568;28;20316;-74
2023/04/18 07:14:41;;;;;;;14.67;8.70;;;;;;;9.89;77.65;101240.88;5050427;28;20432;-74
2023/04/18 07:17:07;;;;;;;14.67;8.43;;;;;;;9.89;78.29;101247.94;5053321;28;20292;-75
2023/04/18 07:19:33;;;;;;;14.27;8.80;;;;;;;9.81;77.53;101252.09;5062488;28;20202;-73
2023/04/18 07:22:00;;;;;;;13.70;9.07;;;;;;;9.79;77.75;101251.16;5054186;28;20203;-75
2023/04/18 07:24:26;;;;;;;16.67;9.63;;;;;;;9.74;78.43;101251.03;5036886;28;20202;-76
2023/04/18 07:26:53;;;;;;;12.53;8.73;;;;;;;9.79;78.05;101256.44;5044318;28;20241;-74
2023/04/18 07:29:20;;;;;;;15.47;8.83;;;;;;;9.74;78.28;101258.94;5054291;28;20766;-74
2023/04/18 07:31:47;;;;;;;17.50;9.00;;;;;;;9.59;78.24;101246.13;5054800;28;20206;-74
2023/04/18 07:34:13;;;;;;;15.10;8.67;;;;;;;9.64;79.01;101248.94;5051246;28;20265;-75
2023/04/18 07:36:41;;;;;;;15.47;9.27;;;;;;;9.78;78.79;101247.63;5048935;28;20216;-75
2023/04/18 07:39:07;;;;;;;16.60;8.57;;;;;;;9.82;78.84;101253.88;5033190;28;20198;-74
2023/04/18 07:41:34;;;;;;;15.07;8.97;;;;;;;9.85;78.61;101246.03;5038761;28;20202;-73
2023/04/18 07:44:01;;;;;;;13.17;8.30;;;;;;;9.86;78.21;101239.91;5056000;28;20674;-74
2023/04/18 07:46:28;;;;;;;13.87;8.50;;;;;;;9.83;78.66;101251.28;5062986;28;20246;-75
2023/04/18 07:48:54;;;;;;;17.23;8.73;;;;;;;9.95;78.71;101245.47;5047361;28;20248;-74
2023/04/18 07:51:21;;;;;;;12.67;8.37;;;;;;;10.10;77.42;101250.31;5051655;28;20616;-74
2023/04/18 07:53:47;;;;;;;13.50;8.13;;;;;;;10.32;77.22;101251.00;5036602;28;20252;-74
2023/04/18 07:56:13;;;;;;;14.50;8.27;;;;;;;10.32;76.46;101251.00;5059232;28;20284;-74
2023/04/18 07:58:40;;;;;;;14.40;8.17;;;;;;;10.42;76.61;101245.97;5048955;28;20195;-73
2023/04/18 08:01:07;;;;;;;13.63;8.20;;;;;;;10.43;76.83;101253.06;5050060;28;20605;-73
2023/04/18 08:03:35;;;;;;;12.47;8.10;;;;;;;10.46;76.57;101255.81;5040509;28;20278;-74
2023/04/18 08:06:02;;;;;;;11.20;7.60;;;;;;;10.39;76.90;101254.72;5051479;28;20213;-73
2023/04/18 08:08:29;;;;;;;12.23;7.77;;;;;;;10.35;76.80;101260.78;5041483;28;20254;-74
2023/04/18 08:10:55;;;;;;;11.67;7.70;;;;;;;10.31;77.28;101261.53;5040519;28;20747;-74
2023/04/18 08:13:24;;;;;;;12.30;7.50;;;;;;;10.51;76.59;101256.81;5028030;28;20561;-73
2023/04/18 08:15:50;;;;;;;10.90;7.47;;;;;;;10.66;75.76;101258.13;5037640;28;20228;-75
2023/04/18 08:18:17;;;;;;;12.73;7.70;;;;;;;10.72;75.74;101264.44;5045860;28;20253;-76
2023/04/18 08:20:43;;;;;;;13.93;8.37;;;;;;;10.63;76.33;101267.75;5051389;28;20195;-74
2023/04/18 08:23:09;;;;;;;12.93;8.20;;;;;;;10.65;76.71;101266.94;5053343;28;20268;-75
2023/04/18 08:25:38;;;;;;;13.27;7.97;;;;;;;10.64;76.01;101264.22;5055909;28;20638;-76
2023/04/18 08:28:05;;;;;;;11.27;8.03;;;;;;;10.79;76.36;101266.38;5046254;28;20212;-76
2023/04/18 08:30:31;;;;;;;12.97;8.10;;;;;;;10.85;75.94;101272.78;5042268;28;20210;-75
2023/04/18 08:32:59;;;;;;;10.90;7.43;;;;;;;10.89;75.38;101273.75;5042649;28;20227;-76
2023/04/18 08:35:25;;;;;;;11.63;7.63;;;;;;;10.77;75.26;101271.66;5038818;28;20314;-76
2023/04/18 08:37:52;;;;;;;13.00;8.00;;;;;;;10.71;75.77;101267.94;5041089;28;20335;-75
2023/04/18 08:40:19;;;;;;;11.97;7.77;;;;;;;10.65;76.54;101276.63;5037652;28;20191;-75
2023/04/18 08:42:45;;;;;;;12.03;7.80;;;;;;;10.67;76.81;101281.09;5039753;28;20192;-74
2023/04/18 08:45:13;;;;;;;12.43;8.40;;;;;;;10.74;76.54;101268.91;5044032;28;20195;-76
2023/04/18 08:47:40;;;;;;;11.57;7.50;;;;;;;10.93;76.02;101275.63;5057455;28;20235;-75
2023/04/18 08:50:08;;;;;;;11.67;7.70;;;;;;;11.22;74.70;101276.38;5044194;28;20553;-76
2023/04/18 08:52:36;;;;;;;10.77;7.33;;;;;;;11.50;73.24;101270.84;5046410;28;20209;-75
2023/04/18 08:55:03;;;;;;;12.33;7.27;;;;;;;11.91;72.03;101270.94;5057020;28;20255;-76
2023/04/18 08:57:30;;;;;;;10.93;7.30;;;;;;;11.87;71.21;101272.63;5057622;28;20280;-75
2023/04/18 08:59:59;;;;;;;11.90;7.23;;;;;;;12.26;70.33;101268.16;5050643;28;20198;-75
2023/04/18 09:02:41;;;;;;;10.17;7.00;;;;;;;12.32;69.64;101270.91;5047718;28;20678;-74
2023/04/18 09:05:13;;;;;;;13.27;6.60;;;;;;;12.53;68.54;101274.91;5056628;28;20273;-76
2023/04/18 09:07:40;;;;;;;12.20;6.90;;;;;;;12.89;68.03;101272.94;5048244;28;20720;-76
2023/04/18 09:10:08;;;;;;;11.03;6.73;;;;;;;13.08;66.82;101265.28;5056999;28;20198;-76
2023/04/18 09:12:48;;;;;;;14.17;8.57;;;;;;;13.09;66.00;101263.53;5055646;28;20209;-76
2023/04/18 09:15:19;;;;;;;10.47;7.47;;;;;;;13.20;65.39;101271.72;5041058;28;20234;-76
2023/04/18 09:17:52;;;;;;;13.47;7.37;;;;;;;13.42;64.17;101268.53;5029402;28;20247;-75
2023/04/18 09:20:34;;;;;;;15.67;8.37;;;;;;;13.38;64.88;101262.28;5037338;28;20264;-76
2023/04/18 09:23:03;;;;;;;11.33;7.40;;;;;;;13.56;64.03;101272.31;5039684;28;20277;-77
2023/04/18 09:25:37;;;;;;;11.90;7.50;;;;;;;13.44;64.37;101266.81;5038795;28;20767;-77
2023/04/18 09:28:31;;;;;;;11.53;7.37;;;;;;;13.26;64.73;101264.75;5040562;28;20290;-77
2023/04/18 09:31:14;;;;;;;10.77;7.00;;;;;;;13.27;64.93;101261.22;5037927;28;20278;-77
2023/04/18 09:33:52;;;;;;;9.73;7.13;;;;;;;13.68;63.50;101260.97;5037526;28;20191;-76
2023/04/18 09:36:21;;;;;;;11.53;7.13;;;;;;;14.15;62.80;101256.28;5036278;28;21560;-81
2023/04/18 09:38:50;;;;;;;11.43;7.03;;;;;;;14.61;60.37;101244.44;5037006;28;20720;-77
2023/04/18 09:41:21;;;;;;;10.63;7.27;;;;;;;14.51;58.03;101242.56;5037954;28;20203;-81
2023/04/18 09:43:48;;;;;;;9.53;7.00;;;;;;;14.38;59.00;101235.22;5037962;28;20201;-84
2023/04/18 09:46:16;;;;;;;10.93;6.57;;;;;;;14.81;58.57;101241.97;5039761;28;20225;-81
2023/04/18 09:48:42;;;;;;;7.93;6.13;;;;;;;14.80;57.00;101241.94;5038347;28;20198;-78
2023/04/18 09:51:13;;;;;;;9.37;6.60;;;;;;;15.13;56.23;101236.91;5023220;28;20199;-79
2023/04/18 09:53:43;;;;;;;8.10;6.00;;;;;;;15.04;56.39;101240.41;5038078;28;20285;-75
2023/04/18 09:56:24;;;;;;;9.07;6.20;;;;;;;14.81;57.78;101228.66;5035970;28;20381;-74
2023/04/18 09:58:55;;;;;;;8.13;6.10;;;;;;;14.88;57.39;101229.59;5034120;28;20208;-75
2023/04/18 10:01:27;;;;;;;8.33;6.17;;;;;;;15.04;57.44;101229.72;5038844;28;20199;-74
2023/04/18 10:03:55;;;;;;;9.03;6.67;;;;;;;15.07;57.61;101233.31;5037658;28;20675;-75
2023/04/18 10:06:26;;;;;;;10.33;6.33;;;;;;;14.98;58.04;101229.69;5034389;28;20311;-74
2023/04/18 10:08:53;;;;;;;8.70;6.23;;;;;;;15.15;57.09;101232.47;5038966;28;20199;-85
2023/04/18 10:11:19;;;;;;;8.47;6.40;;;;;;;15.55;56.84;101228.34;5035799;28;20210;-76
2023/04/18 10:13:47;;;;;;;9.83;6.63;;;;;;;15.60;54.93;101242.63;5038521;28;20203;-74
2023/04/18 10:16:15;;;;;;;9.40;6.77;;;;;;;15.83;55.00;101231.22;5047386;28;20276;-72
2023/04/18 10:18:42;;;;;;;8.53;6.57;;;;;;;15.44;55.48;101247.84;5055299;28;20666;-72
2023/04/18 10:21:08;;;;;;;7.90;5.87;;;;;;;15.29;56.08;101228.16;5051063;28;20226;-73
2023/04/18 10:23:37;;;;;;;9.17;6.60;;;;;;;15.63;55.54;101229.34;5050422;28;20301;-73
2023/04/18 10:26:13;;;;;;;11.43;6.17;;;;;;;15.77;55.03;101223.16;5036249;28;20212;-73
2023/04/18 10:28:56;;;;;;;11.10;6.97;;;;;;;16.09;54.29;101232.25;5049476;28;20253;-74
2023/04/18 10:31:26;;;;;;;10.30;7.00;;;;;;;16.30;53.05;101223.41;5048051;28;20257;-74
2023/04/18 10:33:56;;;;;;;10.77;7.03;;;;;;;17.07;52.62;101219.13;5044355;28;20201;-73
2023/04/18 10:36:26;;;;;;;10.27;6.77;;;;;;;17.00;50.02;101209.31;5048141;28;20214;-74
2023/04/18 10:39:02;;;;;;;10.03;6.40;;;;;;;16.36;51.81;101226.09;5060121;28;20272;-75
2023/04/18 10:41:31;;;;;;;10.90;6.23;;;;;;;16.65;52.06;101214.56;5056720;28;20245;-74
2023/04/18 10:44:16;;;;;;;10.73;6.23;;;;;;;17.11;50.24;101216.44;5041569;28;20195;-73
2023/04/18 10:46:51;;;;;;;10.10;6.83;;;;;;;17.12;49.88;101234.28;5049836;28;20241;-73
2023/04/18 10:49:22;;;;;;;12.23;6.57;;;;;;;16.94;50.50;101210.19;5049078;28;20269;-70
2023/04/18 10:51:54;;;;;;;9.63;6.57;;;;;;;17.32;49.09;101209.31;5043191;28;20195;-71
2023/04/18 10:54:54;;;;;;;9.30;6.27;;;;;;;16.50;51.00;101212.78;5059630;28;22110;-74
2023/04/18 10:57:24;;;;;;;8.90;6.10;;;;;;;16.31;51.88;101214.50;5043119;28;20218;-73
2023/04/18 10:59:51;;;;;;;11.23;6.27;;;;;;;16.60;53.05;101204.78;5034375;28;20234;-74
2023/04/18 11:02:28;;;;;;;10.07;6.63;;;;;;;16.19;51.67;101201.09;5046091;28;20683;-72
2023/04/18 11:04:57;;;;;;;10.37;6.93;;;;;;;15.81;53.64;101199.16;5062263;28;20186;-73
2023/04/18 11:07:40;;;;;;;14.47;7.27;;;;;;;15.89;54.13;101192.06;5057555;28;20222;-73
2023/04/18 11:10:08;;;;;;;9.27;6.37;;;;;;;15.91;53.54;101190.28;5027000;28;20245;-75
2023/04/18 11:12:37;;;;;;;8.87;6.30;;;;;;;15.99;53.30;101180.50;5059442;28;20194;-74
2023/04/18 11:15:35;;;;;;;8.80;5.87;;;;;;;16.06;53.08;101177.91;5052116;28;20557;-73
2023/04/18 11:18:03;;;;;;;8.43;5.77;;;;;;;16.29;52.01;101169.03;5040445;28;20203;-73
2023/04/18 11:20:38;;;;;;;8.33;5.77;;;;;;;16.07;52.28;101180.56;5060616;28;20198;-72
2023/04/18 11:23:14;;;;;;;8.97;6.20;;;;;;;15.51;54.48;101185.59;5059498;28;20198;-72
2023/04/18 11:25:43;;;;;;;8.07;5.97;;;;;;;15.60;54.36;101183.88;5047338;28;20237;-75